createdAt,value
2022-11-21T00:00:46.951Z,100218.03
2022-11-21T00:03:14.180Z,100221.50
2022-11-21T00:05:42.448Z,100209.28
2022-11-21T00:08:10.109Z,100208.38
2022-11-21T00:10:37.772Z,100197.91
2022-11-21T00:13:05.622Z,100192.66
2022-11-21T00:15:33.295Z,100188.28
2022-11-21T00:18:02.541Z,100185.63
2022-11-21T00:20:29.179Z,100180.38
2022-11-21T00:22:55.834Z,100178.66
2022-11-21T00:25:22.902Z,100173.41
2022-11-21T00:27:49.548Z,100170.75
2022-11-21T00:30:16.287Z,100163.75
2022-11-21T00:32:42.928Z,100168.13
2022-11-21T00:35:09.674Z,100161.13
2022-11-21T00:37:36.308Z,100159.44
2022-11-21T00:40:03.220Z,100155.03
2022-11-21T00:42:29.773Z,100156.81
2022-11-21T00:44:56.464Z,100150.66
2022-11-21T00:47:23.078Z,100148.03
2022-11-21T00:49:49.742Z,100154.09
2022-11-21T00:52:17.467Z,100148.84
2022-11-21T00:54:44.388Z,100150.66
2022-11-21T00:57:11.332Z,100145.41
2022-11-21T00:59:37.983Z,100146.22
2022-11-21T01:02:05.574Z,100144.44
2022-11-21T01:04:33.926Z,100141.84
2022-11-21T01:07:00.820Z,100142.69
2022-11-21T01:09:28.852Z,100140.06
2022-11-21T01:11:56.291Z,100140.06
2022-11-21T01:14:23.037Z,100144.41
2022-11-21T01:16:49.797Z,100148.94
2022-11-21T01:19:16.582Z,100141.84
2022-11-21T01:21:43.362Z,100137.56
2022-11-21T01:24:11.874Z,100135.00
2022-11-21T01:26:41.548Z,100129.66
2022-11-21T01:29:09.013Z,100127.88
2022-11-21T01:31:36.220Z,100126.19
2022-11-21T01:34:03.027Z,100122.66
2022-11-21T01:36:31.639Z,100122.72
2022-11-21T01:39:00.577Z,100120.09
2022-11-21T01:41:33.817Z,100120.09
2022-11-21T01:44:01.923Z,100114.78
2022-11-21T01:46:28.911Z,100123.53
2022-11-21T01:48:58.401Z,100123.53
2022-11-21T01:51:32.290Z,100129.66
2022-11-21T01:54:03.412Z,100120.03
2022-11-21T01:56:32.671Z,100122.63
2022-11-21T01:59:01.342Z,100114.75
2022-11-21T02:01:28.741Z,100118.34
2022-11-21T02:03:56.079Z,100113.84
2022-11-21T02:06:23.688Z,100105.97
2022-11-21T02:08:50.666Z,100108.53
2022-11-21T02:11:27.362Z,100108.56
2022-11-21T02:13:54.716Z,100101.53
2022-11-21T02:16:21.823Z,100100.63
2022-11-21T02:18:48.441Z,100100.66
2022-11-21T02:21:26.023Z,100103.22
2022-11-21T02:24:12.540Z,100092.75
2022-11-21T02:26:39.368Z,100097.16
2022-11-21T02:29:06.060Z,100104.25
2022-11-21T02:31:32.800Z,100095.50
2022-11-21T02:33:59.466Z,100092.75
2022-11-21T02:36:38.422Z,100091.00
2022-11-21T02:39:11.910Z,100079.63
2022-11-21T02:41:51.270Z,100077.00
2022-11-21T02:44:48.441Z,100077.88
2022-11-21T02:47:15.069Z,100068.19
2022-11-21T02:49:48.939Z,100062.97
2022-11-21T02:52:15.860Z,100062.97
2022-11-21T02:54:42.568Z,100059.50
2022-11-21T02:57:09.153Z,100061.25
2022-11-21T02:59:35.883Z,100060.25
2022-11-21T03:02:02.794Z,100057.69
2022-11-21T03:04:29.682Z,100056.88
2022-11-21T03:06:59.859Z,100061.19
2022-11-21T03:09:26.658Z,100062.88
2022-11-21T03:11:53.349Z,100057.59
2022-11-21T03:14:20.031Z,100052.41
2022-11-21T03:16:46.670Z,100059.44
2022-11-21T03:19:13.337Z,100063.00
2022-11-21T03:21:40.100Z,100070.00
2022-11-21T03:24:09.870Z,100055.97
2022-11-21T03:26:36.515Z,100057.72
2022-11-21T03:29:03.225Z,100064.78
2022-11-21T03:31:29.861Z,100069.09
2022-11-21T03:33:56.510Z,100068.13
2022-11-21T03:36:23.161Z,100064.66
2022-11-21T03:38:49.972Z,100071.84
2022-11-21T03:41:31.913Z,100064.69
2022-11-21T03:44:03.967Z,100066.38
2022-11-21T03:46:32.887Z,100070.84
2022-11-21T03:48:59.946Z,100071.75
2022-11-21T03:51:27.118Z,100080.50
2022-11-21T03:53:53.852Z,100085.63
2022-11-21T03:56:20.584Z,100092.66
2022-11-21T03:58:47.638Z,100090.03
2022-11-21T04:01:15.233Z,100081.19
2022-11-21T04:03:45.572Z,100079.44
2022-11-21T04:06:14.124Z,100070.66
2022-11-21T04:08:40.785Z,100074.16
2022-11-21T04:11:07.858Z,100083.06
2022-11-21T04:13:34.709Z,100074.25
2022-11-21T04:16:01.460Z,100073.28
2022-11-21T04:18:28.052Z,100071.53
2022-11-21T04:20:58.492Z,100073.28
2022-11-21T04:23:25.843Z,100082.88
2022-11-21T04:25:52.924Z,100072.53
2022-11-21T04:28:19.983Z,100081.25
2022-11-21T04:30:52.466Z,100086.56
2022-11-21T04:33:21.486Z,100077.72
2022-11-21T04:35:48.402Z,100090.09
2022-11-21T04:38:18.096Z,100081.34
2022-11-21T04:40:45.632Z,100080.50
2022-11-21T04:43:12.332Z,100077.75
2022-11-21T04:45:39.241Z,100085.81
2022-11-21T04:48:06.157Z,100093.72
2022-11-21T04:50:33.315Z,100094.56
2022-11-21T04:53:00.087Z,100091.13
2022-11-21T04:55:30.286Z,100093.75
2022-11-21T04:57:57.048Z,100091.13
2022-11-21T05:00:24.616Z,100087.72
2022-11-21T05:02:51.788Z,100088.50
2022-11-21T05:05:18.696Z,100085.03
2022-11-21T05:07:45.328Z,100078.09
2022-11-21T05:10:12.163Z,100087.69
2022-11-21T05:12:57.654Z,100087.69
2022-11-21T05:15:26.498Z,100092.13
2022-11-21T05:17:53.191Z,100094.69
2022-11-21T05:20:19.887Z,100089.44
2022-11-21T05:22:51.833Z,100094.66
2022-11-21T05:25:18.552Z,100092.88
2022-11-21T05:27:45.287Z,100097.25
2022-11-21T05:30:15.156Z,100097.25
2022-11-21T05:32:43.596Z,100098.13
2022-11-21T05:35:10.358Z,100097.31
2022-11-21T05:37:37.044Z,100099.06
2022-11-21T05:40:03.959Z,100104.25
2022-11-21T05:42:49.287Z,100094.59
2022-11-21T05:45:16.269Z,100105.22
2022-11-21T05:47:42.941Z,100100.06
2022-11-21T05:50:09.747Z,100099.19
2022-11-21T05:52:36.384Z,100084.19
2022-11-21T05:55:03.175Z,100087.72
2022-11-21T05:57:31.136Z,100094.72
2022-11-21T06:00:00.792Z,100099.03
2022-11-21T06:02:46.228Z,100091.25
2022-11-21T06:05:12.990Z,100094.75
2022-11-21T06:07:39.687Z,100093.84
2022-11-21T06:10:06.656Z,100103.41
2022-11-21T06:12:33.379Z,100096.31
2022-11-21T06:15:00.137Z,100096.38
2022-11-21T06:17:26.969Z,100095.56
2022-11-21T06:19:53.671Z,100099.81
2022-11-21T06:22:20.428Z,100093.69
2022-11-21T06:24:47.119Z,100092.94
2022-11-21T06:27:13.716Z,100091.97
2022-11-21T06:29:40.387Z,100099.78
2022-11-21T06:32:06.996Z,100096.28
2022-11-21T06:34:33.751Z,100103.25
2022-11-21T06:37:00.822Z,100101.59
2022-11-21T06:39:27.506Z,100097.97
2022-11-21T06:41:54.215Z,100104.97
2022-11-21T06:44:20.954Z,100109.25
2022-11-21T06:46:51.167Z,100109.28
2022-11-21T06:49:18.249Z,100104.97
2022-11-21T06:51:44.891Z,100110.22
2022-11-21T06:54:16.336Z,100106.69
2022-11-21T06:56:43.966Z,100113.75
2022-11-21T06:59:10.986Z,100120.75
2022-11-21T07:01:37.731Z,100120.88
2022-11-21T07:04:04.586Z,100129.66
2022-11-21T07:06:31.265Z,100134.84
2022-11-21T07:09:31.135Z,100135.69
2022-11-21T07:11:44.591Z,100143.59
2022-11-21T07:14:11.285Z,100140.97
2022-11-21T07:16:38.203Z,100138.41
2022-11-21T07:19:05.058Z,100142.63
2022-11-21T07:21:31.677Z,100144.47
2022-11-21T07:23:58.625Z,100154.19
2022-11-21T07:26:25.228Z,100154.91
2022-11-21T07:28:55.010Z,100156.59
2022-11-21T07:31:21.725Z,100164.56
2022-11-21T07:33:48.415Z,100164.63
2022-11-21T07:36:15.115Z,100166.31
2022-11-21T07:38:42.243Z,100165.47
2022-11-21T07:41:09.703Z,100168.19
2022-11-21T07:43:36.450Z,100176.09
2022-11-21T07:46:03.141Z,100174.34
2022-11-21T07:48:29.806Z,100176.97
2022-11-21T07:50:59.342Z,100174.34
2022-11-21T07:53:25.981Z,100176.97
2022-11-21T07:55:52.717Z,100186.53
2022-11-21T07:58:19.612Z,100185.66
2022-11-21T08:00:46.283Z,100190.91
2022-11-21T08:03:13.535Z,100196.19
2022-11-21T08:05:42.070Z,100188.31
2022-11-21T08:08:09.971Z,100192.66
2022-11-21T08:10:43.286Z,100199.63
2022-11-21T08:13:10.636Z,100197.88
2022-11-21T08:15:37.745Z,100192.63
2022-11-21T08:18:12.513Z,100190.06
2022-11-21T08:20:39.589Z,100196.16
2022-11-21T08:23:06.873Z,100198.84
2022-11-21T08:25:34.915Z,100191.81
2022-11-21T08:28:02.902Z,100189.22
2022-11-21T08:30:29.943Z,100210.16
2022-11-21T08:32:58.787Z,100207.56
2022-11-21T08:35:26.572Z,100211.03
2022-11-21T08:38:00.130Z,100220.69
2022-11-21T08:40:28.420Z,100224.16
2022-11-21T08:43:21.401Z,100221.50
2022-11-21T08:45:48.056Z,100232.91
2022-11-21T08:48:14.713Z,100237.28
2022-11-21T08:50:41.376Z,100232.00
2022-11-21T08:53:08.076Z,100232.03
2022-11-21T08:55:34.803Z,100238.16
2022-11-21T08:58:01.496Z,100235.50
2022-11-21T09:00:28.393Z,100235.50
2022-11-21T09:02:55.274Z,100243.38
2022-11-21T09:05:22.396Z,100236.38
2022-11-21T09:07:49.213Z,100239.84
2022-11-21T09:10:16.229Z,100238.13
2022-11-21T09:12:43.389Z,100232.03
2022-11-21T09:15:29.841Z,100236.41
2022-11-21T09:18:03.511Z,100247.75
2022-11-21T09:20:34.852Z,100242.50
2022-11-21T09:23:13.337Z,100243.38
2022-11-21T09:25:40.105Z,100246.00
2022-11-21T09:28:09.002Z,100242.50
2022-11-21T09:30:36.066Z,100253.88
2022-11-21T09:33:06.870Z,100247.72
2022-11-21T09:35:33.850Z,100246.84
2022-11-21T09:38:00.649Z,100250.31
2022-11-21T09:40:29.542Z,100257.31
2022-11-21T09:42:59.143Z,100253.00
2022-11-21T09:45:42.296Z,100257.34
2022-11-21T09:48:16.113Z,100248.59
2022-11-21T09:50:53.805Z,100249.41
2022-11-21T09:53:27.715Z,100254.69
2022-11-21T09:56:11.688Z,100259.06
2022-11-21T09:58:49.065Z,100257.34
2022-11-21T10:01:16.937Z,100262.59
2022-11-21T10:03:48.854Z,100263.44
2022-11-21T10:06:27.105Z,100268.72
2022-11-21T10:09:00.802Z,100261.75
2022-11-21T10:12:20.875Z,100264.38
2022-11-21T10:15:07.781Z,100268.72
2022-11-21T10:17:41.911Z,100275.72
2022-11-21T10:20:40.484Z,100274.84
2022-11-21T10:23:42.668Z,100291.41
2022-11-21T10:26:17.276Z,100289.72
2022-11-21T10:28:59.680Z,100293.22
2022-11-21T10:31:27.259Z,100292.34
2022-11-21T10:33:54.587Z,100292.28
2022-11-21T10:36:47.443Z,100282.66
2022-11-21T10:39:19.417Z,100288.84
2022-11-21T10:41:59.203Z,100298.41
2022-11-21T10:44:48.806Z,100294.00
2022-11-21T10:47:27.848Z,100305.38
2022-11-21T10:50:06.476Z,100301.00
2022-11-21T10:53:01.942Z,100285.22
2022-11-21T10:55:28.680Z,100297.44
2022-11-21T10:57:55.474Z,100299.28
2022-11-21T11:00:24.771Z,100301.94
2022-11-21T11:02:57.856Z,100294.06
2022-11-21T11:05:38.057Z,100301.94
2022-11-21T11:08:12.693Z,100306.31
2022-11-21T11:10:44.340Z,100300.16
2022-11-21T11:13:50.650Z,100302.75
2022-11-21T11:16:21.339Z,100305.41
2022-11-21T11:18:57.426Z,100308.91
2022-11-21T11:21:44.322Z,100303.69
2022-11-21T11:24:10.880Z,100308.03
2022-11-21T11:26:49.785Z,100307.19
2022-11-21T11:29:21.781Z,100308.06
2022-11-21T11:31:57.646Z,100300.19
2022-11-21T11:34:27.748Z,100307.19
2022-11-21T11:36:55.692Z,100299.31
2022-11-21T11:39:37.559Z,100303.66
2022-11-21T11:42:34.189Z,100308.00
2022-11-21T11:45:22.580Z,100309.81
2022-11-21T11:48:13.978Z,100307.19
2022-11-21T11:50:48.459Z,100301.94
2022-11-21T11:53:23.854Z,100297.56
2022-11-21T11:56:02.693Z,100296.66
2022-11-21T11:58:53.417Z,100301.03
2022-11-21T12:01:39.671Z,100310.66
2022-11-21T12:04:13.001Z,100307.16
2022-11-21T12:08:05.945Z,100309.75
2022-11-21T12:10:01.908Z,100308.81
2022-11-21T12:12:35.817Z,100306.16
2022-11-21T12:15:45.381Z,100301.06
2022-11-21T12:18:21.035Z,100297.56
2022-11-21T12:21:02.876Z,100299.28
2022-11-21T12:23:41.209Z,100289.69
2022-11-21T12:26:40.384Z,100292.28
2022-11-21T12:29:10.404Z,100290.59
2022-11-21T12:31:44.444Z,100280.94
2022-11-21T12:34:51.765Z,100287.88
2022-11-21T12:37:50.202Z,100286.19
2022-11-21T12:40:41.583Z,100277.38
2022-11-21T12:43:18.714Z,100273.78
2022-11-21T12:46:02.317Z,100277.28
2022-11-21T12:49:12.918Z,100281.50
2022-11-21T12:52:36.697Z,100270.16
2022-11-21T12:55:12.159Z,100272.81
2022-11-21T12:57:56.735Z,100267.59
2022-11-21T13:00:49.066Z,100264.88
2022-11-21T13:03:42.421Z,100263.19
2022-11-21T13:06:19.719Z,100256.13
2022-11-21T13:08:48.716Z,100257.81
2022-11-21T13:11:47.363Z,100256.00
2022-11-21T13:14:32.849Z,100255.25
2022-11-21T13:17:11.117Z,100260.63
2022-11-21T13:19:43.267Z,100251.72
2022-11-21T13:22:36.304Z,100256.00
2022-11-21T13:25:09.125Z,100256.94
2022-11-21T13:27:39.157Z,100264.00
2022-11-21T13:30:09.655Z,100263.16
2022-11-21T13:32:44.721Z,100255.16
2022-11-21T13:35:14.979Z,100246.56
2022-11-21T13:38:01.313Z,100246.41
2022-11-21T13:40:39.016Z,100250.63
2022-11-21T13:43:31.348Z,100242.81
2022-11-21T13:45:56.725Z,100234.03
2022-11-21T13:48:34.790Z,100239.22
2022-11-21T13:51:33.014Z,100234.28
2022-11-21T13:54:17.979Z,100226.41
2022-11-21T13:57:02.979Z,100223.56
2022-11-21T13:59:47.050Z,100218.25
2022-11-21T14:02:32.112Z,100209.41
2022-11-21T14:05:04.411Z,100218.16
2022-11-21T14:07:33.307Z,100219.00
2022-11-21T14:10:02.128Z,100206.78
2022-11-21T14:12:38.326Z,100205.97
2022-11-21T14:15:24.026Z,100219.25
2022-11-21T14:17:58.602Z,100213.75
2022-11-21T14:20:27.824Z,100219.00
2022-11-21T14:23:03.783Z,100219.00
2022-11-21T14:25:33.445Z,100220.78
2022-11-21T14:28:00.586Z,100210.25
2022-11-21T14:30:29.848Z,100215.56
2022-11-21T14:32:56.643Z,100205.81
2022-11-21T14:35:24.308Z,100201.41
2022-11-21T14:37:51.367Z,100199.75
2022-11-21T14:40:23.073Z,100197.13
2022-11-21T14:42:50.067Z,100210.38
2022-11-21T14:45:19.946Z,100212.19
2022-11-21T14:47:53.576Z,100222.69
2022-11-21T14:50:24.766Z,100220.97
2022-11-21T14:52:57.390Z,100222.69
2022-11-21T14:55:31.542Z,100223.50
2022-11-21T14:58:00.851Z,100221.75
2022-11-21T15:00:58.120Z,100220.97
2022-11-21T15:03:23.539Z,100220.88
2022-11-21T15:06:05.045Z,100223.59
2022-11-21T15:09:14.506Z,100229.69
2022-11-21T15:11:21.862Z,100227.22
2022-11-21T15:14:14.439Z,100224.59
2022-11-21T15:16:38.072Z,100226.38
2022-11-21T15:19:11.285Z,100229.00
2022-11-21T15:21:44.451Z,100232.44
2022-11-21T15:24:26.892Z,100226.25
2022-11-21T15:26:53.520Z,100224.56
2022-11-21T15:29:21.273Z,100220.06
2022-11-21T15:32:07.434Z,100214.00
2022-11-21T15:34:35.776Z,100215.81
2022-11-21T15:37:13.304Z,100211.31
2022-11-21T15:39:45.094Z,100204.31
2022-11-21T15:42:44.264Z,100216.59
2022-11-21T15:45:24.015Z,100216.59
2022-11-21T15:47:51.083Z,100209.56
2022-11-21T15:50:18.011Z,100212.22
2022-11-21T15:52:50.134Z,100206.03
2022-11-21T15:55:26.420Z,100198.13
2022-11-21T15:57:53.336Z,100211.44
2022-11-21T16:00:20.169Z,100205.31
2022-11-21T16:02:47.441Z,100214.09
2022-11-21T16:05:15.553Z,100207.06
2022-11-21T16:07:42.533Z,100211.47
2022-11-21T16:10:18.001Z,100208.78
2022-11-21T16:12:48.494Z,100205.38
2022-11-21T16:15:15.489Z,100194.84
2022-11-21T16:17:42.344Z,100192.22
2022-11-21T16:20:09.551Z,100195.69
2022-11-21T16:22:44.185Z,100186.09
2022-11-21T16:25:13.873Z,100193.16
2022-11-21T16:27:40.669Z,100189.63
2022-11-21T16:30:08.023Z,100188.84
2022-11-21T16:32:34.882Z,100188.84
2022-11-21T16:35:01.705Z,100188.81
2022-11-21T16:37:28.666Z,100190.59
2022-11-21T16:39:55.392Z,100180.94
2022-11-21T16:42:22.283Z,100187.19
2022-11-21T16:44:49.268Z,100177.50
2022-11-21T16:47:15.987Z,100178.38
2022-11-21T16:49:48.423Z,100174.88
2022-11-21T16:52:24.065Z,100175.78
2022-11-21T16:54:50.862Z,100177.56
2022-11-21T16:57:17.582Z,100176.66
2022-11-21T16:59:44.321Z,100189.78
2022-11-21T17:02:11.130Z,100192.50
2022-11-21T17:04:38.047Z,100196.84
2022-11-21T17:07:04.909Z,100188.13
2022-11-21T17:09:31.630Z,100189.88
2022-11-21T17:11:59.405Z,100192.53
2022-11-21T17:14:26.716Z,100187.28
2022-11-21T17:16:53.680Z,100196.06
2022-11-21T17:19:20.837Z,100190.78
2022-11-21T17:21:47.679Z,100186.44
2022-11-21T17:24:14.526Z,100175.06
2022-11-21T17:26:41.263Z,100165.44
2022-11-21T17:29:07.967Z,100151.47
2022-11-21T17:31:34.913Z,100150.63
2022-11-21T17:34:01.967Z,100155.81
2022-11-21T17:36:30.136Z,100158.50
2022-11-21T17:38:57.612Z,100159.31
2022-11-21T17:41:26.172Z,100156.72
2022-11-21T17:43:58.391Z,100162.91
2022-11-21T17:46:26.416Z,100151.53
2022-11-21T17:48:57.508Z,100141.88
2022-11-21T17:51:34.510Z,100148.03
2022-11-21T17:54:01.957Z,100149.78
2022-11-21T17:56:31.662Z,100147.09
2022-11-21T17:58:58.566Z,100150.59
2022-11-21T18:01:25.683Z,100142.72
2022-11-21T18:03:59.864Z,100135.72
2022-11-21T18:06:28.647Z,100147.97
2022-11-21T18:08:57.168Z,100149.69
2022-11-21T18:11:24.568Z,100146.22
2022-11-21T18:13:51.556Z,100148.84
2022-11-21T18:16:20.941Z,100151.47
2022-11-21T18:18:49.571Z,100151.50
2022-11-21T18:21:18.799Z,100152.38
2022-11-21T18:23:47.169Z,100147.97
2022-11-21T18:26:23.177Z,100143.63
2022-11-21T18:29:13.454Z,100130.50
2022-11-21T18:31:44.142Z,100122.56
2022-11-21T18:34:12.714Z,100122.53
2022-11-21T18:36:39.577Z,100114.63
2022-11-21T18:39:14.646Z,100108.56
2022-11-21T18:41:42.380Z,100103.25
2022-11-21T18:44:10.159Z,100103.25
2022-11-21T18:46:38.114Z,100106.81
2022-11-21T18:49:06.840Z,100112.06
2022-11-21T18:51:34.749Z,100106.84
2022-11-21T18:54:05.439Z,100098.22
2022-11-21T18:56:32.447Z,100099.94
2022-11-21T18:58:59.549Z,100092.09
2022-11-21T19:01:28.136Z,100095.56
2022-11-21T19:03:55.763Z,100093.84
2022-11-21T19:06:23.785Z,100092.88
2022-11-21T19:08:53.271Z,100093.84
2022-11-21T19:11:21.281Z,100096.44
2022-11-21T19:13:49.009Z,100102.56
2022-11-21T19:16:18.497Z,100081.53
2022-11-21T19:18:55.314Z,100073.66
2022-11-21T19:21:36.700Z,100071.06
2022-11-21T19:24:03.568Z,100059.63
2022-11-21T19:26:31.644Z,100047.34
2022-11-21T19:28:58.990Z,100058.75
2022-11-21T19:31:26.129Z,100046.56
2022-11-21T19:33:53.497Z,100035.25
2022-11-21T19:36:22.113Z,100029.09
2022-11-21T19:38:51.451Z,100041.25
2022-11-21T19:41:20.090Z,100022.88
2022-11-21T19:43:51.467Z,100025.53
2022-11-21T19:46:21.320Z,100011.47
2022-11-21T19:48:49.639Z,100013.19
2022-11-21T19:51:18.001Z,100005.44
2022-11-21T19:53:46.423Z,100000.13
2022-11-21T19:56:18.274Z,100001.88
2022-11-21T19:58:45.600Z,100005.38
2022-11-21T20:01:20.463Z,100001.94
2022-11-21T20:03:49.669Z,100000.16
2022-11-21T20:06:24.451Z,100000.16
2022-11-21T20:08:58.843Z,100002.78
2022-11-21T20:11:26.642Z,99994.09
2022-11-21T20:13:53.766Z,99991.53
2022-11-21T20:16:32.456Z,99991.47
2022-11-21T20:19:02.333Z,100000.13
2022-11-21T20:21:29.781Z,99999.22
2022-11-21T20:23:56.995Z,100003.56
2022-11-21T20:26:24.883Z,100001.84
2022-11-21T20:28:52.076Z,100000.06
2022-11-21T20:31:24.916Z,99999.22
2022-11-21T20:33:53.660Z,99998.38
2022-11-21T20:36:22.625Z,99991.28
2022-11-21T20:38:51.138Z,99993.09
2022-11-21T20:41:19.241Z,99988.63
2022-11-21T20:44:26.736Z,99986.00
2022-11-21T20:46:34.463Z,99991.19
2022-11-21T20:49:02.268Z,99988.56
2022-11-21T20:54:16.300Z,99995.63
2022-11-21T20:56:44.499Z,99995.59
2022-11-21T20:59:11.437Z,99994.69
2022-11-21T21:01:38.476Z,100011.16
2022-11-21T21:04:05.516Z,100013.06
2022-11-21T21:06:32.494Z,100016.59
2022-11-21T21:09:00.477Z,100014.75
2022-11-21T21:14:14.561Z,100032.25
2022-11-21T21:16:41.442Z,100034.88
2022-11-21T21:19:08.232Z,100036.63
2022-11-21T21:21:35.008Z,100039.25
2022-11-21T21:24:06.776Z,100037.53
2022-11-21T21:26:41.744Z,100031.38
2022-11-21T21:29:11.086Z,100033.97
2022-11-21T21:31:37.846Z,100033.97
2022-11-21T21:34:04.814Z,100034.97
2022-11-21T21:36:32.286Z,100053.19
2022-11-21T21:39:00.855Z,100057.63
2022-11-21T21:41:30.033Z,100062.78
2022-11-21T21:43:58.007Z,100055.88
2022-11-21T21:46:27.339Z,100055.81
2022-11-21T21:48:56.254Z,100040.97
2022-11-21T21:51:25.077Z,100043.66
2022-11-21T21:53:52.901Z,100044.41
2022-11-21T21:56:20.851Z,100048.81
2022-11-21T21:58:48.683Z,100048.91
2022-11-21T22:01:20.928Z,100038.22
2022-11-21T22:03:48.192Z,100042.50
2022-11-21T22:06:18.935Z,100046.16
2022-11-21T22:08:47.252Z,100052.22
2022-11-21T22:11:16.208Z,100060.22
2022-11-21T22:13:44.444Z,100053.22
2022-11-21T22:16:12.383Z,100044.41
2022-11-21T22:18:39.708Z,100033.03
2022-11-21T22:21:24.672Z,100019.03
2022-11-21T22:24:23.085Z,100017.22
2022-11-21T22:26:38.113Z,100011.97
2022-11-21T22:29:04.881Z,100008.50
2022-11-21T22:31:31.631Z,99998.78
2022-11-21T22:33:58.846Z,99997.19
2022-11-21T22:36:25.840Z,99990.09
2022-11-21T22:38:53.943Z,99995.38
2022-11-21T22:41:22.493Z,99987.47
2022-11-21T22:43:51.053Z,99984.06
2022-11-21T22:46:18.155Z,99979.72
2022-11-21T22:48:44.889Z,99979.66
2022-11-21T22:51:19.344Z,99974.47
2022-11-21T22:53:47.033Z,99967.56
2022-11-21T22:56:16.806Z,99965.78
2022-11-21T22:58:45.784Z,99979.72
2022-11-21T23:01:14.803Z,99973.63
2022-11-21T23:03:42.807Z,99963.09
2022-11-21T23:06:18.747Z,99967.50
2022-11-21T23:08:45.816Z,99975.44
2022-11-21T23:11:31.628Z,99978.13
2022-11-21T23:14:00.921Z,99980.81
2022-11-21T23:16:28.754Z,99970.34
2022-11-21T23:18:56.815Z,99980.75
2022-11-21T23:21:23.850Z,99968.59
2022-11-21T23:23:50.590Z,99977.22
2022-11-21T23:26:17.261Z,99967.72
2022-11-21T23:28:43.909Z,99966.75
2022-11-21T23:31:10.761Z,99971.22
2022-11-21T23:33:37.612Z,99976.34
2022-11-21T23:36:04.695Z,99971.09
2022-11-21T23:38:31.507Z,99954.38
2022-11-21T23:40:58.251Z,99961.47
2022-11-21T23:43:24.973Z,99953.66
2022-11-21T23:45:52.552Z,99956.31
2022-11-21T23:48:19.873Z,99954.66
2022-11-21T23:50:47.455Z,99958.03
2022-11-21T23:53:14.367Z,99959.69
2022-11-21T23:55:44.494Z,99962.44
2022-11-21T23:58:11.809Z,99957.16
